Sunday, April 26, 2015, 4:53 PM EDT

KUNV, State College, University Park Airport

Location: State College, PA, United States Lat: 40.85
Local Time: 4:53 PM EDT (20:53 GMT) Lon: -77.85
Time Zone: US/Eastern Elev: 1240 ft

Show me the last for .
Show Decoded

2015-04-26 15:53 METAR KUNV 261953Z 36010KT 10SM BKN075 14/M03 A2970 =
2015-04-26 14:53 METAR KUNV 261853Z 03011G17KT 10SM SCT075 14/M03 A2971 =
2015-04-26 13:53 METAR KUNV 261753Z 32003KT 10SM SCT065 13/M03 A2972 =
2015-04-26 12:53 METAR KUNV 261653Z 01003KT 10SM SKC 12/M03 A2973 =
2015-04-26 11:53 METAR KUNV 261553Z 00000KT 10SM SKC 10/M01 A2975 =
2015-04-26 10:53 METAR KUNV 261453Z 04008KT 10SM SCT045 09/M01 A2975 =
2015-04-26 09:53 METAR KUNV 261353Z 03009KT 10SM FEW040 08/M02 A2976 =
2015-04-26 08:53 METAR KUNV 261253Z 03007KT 10SM SKC 05/M03 A2976 =
2015-04-26 07:53 METAR KUNV 261153Z 05008KT 10SM SKC 04/M03 A2975 =
2015-04-26 06:53 METAR KUNV 261053Z 00000KT 10SM SKC 02/M03 A2973 =
2015-04-26 05:53 METAR KUNV 260953Z 00000KT 10SM SKC 02/M04 A2972 =
2015-04-26 05:35 METAR KUNV 260935Z AUTO 03005KT 10SM CLR 02/M03 A2972 RMK AO2 T00211035 =
2015-04-26 05:15 METAR KUNV 260915Z AUTO 02006KT 10SM CLR 02/M03 A2972 RMK AO2 T00211032 =
2015-04-26 04:55 METAR KUNV 260855Z AUTO 03006KT 10SM CLR 03/M03 A2972 RMK AO2 T00281033 =
2015-04-26 04:35 METAR KUNV 260835Z AUTO 04005KT 10SM CLR 03/M03 A2972 RMK AO2 T00261032 =
2015-04-26 04:15 METAR KUNV 260815Z AUTO 01006KT 10SM CLR 03/M03 A2972 RMK AO2 T00291034 =
2015-04-26 03:55 METAR KUNV 260755Z AUTO 05004KT 10SM CLR 03/M03 A2971 RMK AO2 T00301033 =
2015-04-26 03:35 METAR KUNV 260735Z AUTO 02004KT 10SM CLR 04/M03 A2971 RMK AO2 T00351031 =
2015-04-26 03:15 METAR KUNV 260715Z AUTO 03005KT 10SM CLR 03/M03 A2971 RMK AO2 T00341030 =
2015-04-26 02:55 METAR KUNV 260655Z AUTO 00000KT 10SM CLR 03/M03 A2971 RMK AO2 T00341030 =
2015-04-26 02:35 METAR KUNV 260635Z AUTO 00000KT 10SM CLR 03/M03 A2971 RMK AO2 T00301030 =
2015-04-26 02:15 METAR KUNV 260615Z AUTO 03005KT 10SM CLR 04/M03 A2971 RMK AO2 T00431030 =
2015-04-26 01:55 METAR KUNV 260555Z AUTO 02006KT 10SM CLR 04/M03 A2971 RMK AO2 T00431031 10101
                 20040 =
2015-04-26 01:35 METAR KUNV 260535Z AUTO 05006KT 10SM CLR 04/M03 A2971 RMK AO2 T00401030 =
2015-04-26 01:15 METAR KUNV 260515Z AUTO 05007KT 10SM CLR 04/M03 A2971 RMK AO2 T00441031 =
2015-04-26 00:55 METAR KUNV 260455Z AUTO 03006KT 10SM CLR 05/M03 A2970 RMK AO2 T00471031 =
2015-04-26 00:35 METAR KUNV 260435Z AUTO 03006KT 10SM CLR 05/M03 A2970 RMK AO2 T00511031 =
2015-04-26 00:15 METAR KUNV 260415Z AUTO 04009KT 10SM CLR 05/M03 A2970 RMK AO2 T00531030 =
2015-04-25 23:55 METAR KUNV 260355Z AUTO 04010KT 10SM CLR 06/M03 A2969 RMK AO2 T00581032
                 401221006 =
2015-04-25 23:35 METAR KUNV 260335Z AUTO 03010KT 10SM CLR 06/M04 A2969 RMK AO2 T00591036 =
2015-04-25 23:15 METAR KUNV 260315Z AUTO 01009KT 10SM CLR 05/M05 A2970 RMK AO2 T00521047 =
2015-04-25 22:55 METAR KUNV 260255Z AUTO 00000KT 10SM CLR 08/M07 A2970 RMK AO2 T00801066 =
2015-04-25 22:35 METAR KUNV 260235Z AUTO 00000KT 10SM CLR 07/M07 A2971 RMK AO2 LTG DSNT SW
                 T00721070 =
2015-04-25 22:15 METAR KUNV 260215Z AUTO 00000KT 10SM CLR 08/M06 A2971 RMK AO2 T00771065 =
2015-04-25 20:53 METAR KUNV 260053Z 00000KT 10SM SKC 09/M07 A2970 =
2015-04-25 19:53 METAR KUNV 252353Z 00000KT 10SM SKC 10/M07 A2971 =
2015-04-25 18:53 METAR KUNV 252253Z 14003KT 10SM SKC 10/M06 A2970 =
2015-04-25 17:53 METAR KUNV 252153Z 09004KT 10SM SKC 11/M05 A2971 =

Support USWX by starting your Amazon purchase here.